sensor_id;sensor_type;location;lat;lon;timestamp;temperature;humidity
13585;DHT22;6863;48.402;9.994;2022-08-21T00:00:43;15.10;99.90
13585;DHT22;6863;48.402;9.994;2022-08-21T00:03:10;15.10;99.90
13585;DHT22;6863;48.402;9.994;2022-08-21T00:05:39;15.10;99.90
13585;DHT22;6863;48.402;9.994;2022-08-21T00:08:05;15.10;99.90
13585;DHT22;6863;48.402;9.994;2022-08-21T00:10:31;15.10;99.90
13585;DHT22;6863;48.402;9.994;2022-08-21T00:12:57;15.10;99.90
13585;DHT22;6863;48.402;9.994;2022-08-21T00:15:26;15.20;99.90
13585;DHT22;6863;48.402;9.994;2022-08-21T00:17:53;15.10;99.90
13585;DHT22;6863;48.402;9.994;2022-08-21T00:20:19;15.10;99.90
13585;DHT22;6863;48.402;9.994;2022-08-21T00:22:45;15.10;99.90
13585;DHT22;6863;48.402;9.994;2022-08-21T00:25:11;15.00;99.90
13585;DHT22;6863;48.402;9.994;2022-08-21T00:27:37;15.00;99.90
13585;DHT22;6863;48.402;9.994;2022-08-21T00:30:05;15.00;99.90
13585;DHT22;6863;48.402;9.994;2022-08-21T00:32:32;14.90;99.90
13585;DHT22;6863;48.402;9.994;2022-08-21T00:34:58;14.90;99.90
13585;DHT22;6863;48.402;9.994;2022-08-21T00:37:23;14.80;99.90
13585;DHT22;6863;48.402;9.994;2022-08-21T00:39:49;14.80;99.90
13585;DHT22;6863;48.402;9.994;2022-08-21T00:42:15;14.70;99.90
13585;DHT22;6863;48.402;9.994;2022-08-21T00:44:46;14.70;99.90
13585;DHT22;6863;48.402;9.994;2022-08-21T00:47:12;14.70;99.90
13585;DHT22;6863;48.402;9.994;2022-08-21T00:49:39;14.60;99.90
13585;DHT22;6863;48.402;9.994;2022-08-21T00:52:10;14.60;99.90
13585;DHT22;6863;48.402;9.994;2022-08-21T00:54:39;14.60;99.90
13585;DHT22;6863;48.402;9.994;2022-08-21T00:57:10;14.60;99.90
13585;DHT22;6863;48.402;9.994;2022-08-21T00:59:40;14.50;99.90
13585;DHT22;6863;48.402;9.994;2022-08-21T01:02:08;14.40;99.90
13585;DHT22;6863;48.402;9.994;2022-08-21T01:04:34;14.50;99.90
13585;DHT22;6863;48.402;9.994;2022-08-21T01:07:00;14.50;99.90
13585;DHT22;6863;48.402;9.994;2022-08-21T01:09:26;14.40;99.90
13585;DHT22;6863;48.402;9.994;2022-08-21T01:11:52;14.30;99.90
13585;DHT22;6863;48.402;9.994;2022-08-21T01:14:18;14.30;99.90
13585;DHT22;6863;48.402;9.994;2022-08-21T01:16:48;14.20;99.90
13585;DHT22;6863;48.402;9.994;2022-08-21T01:19:17;14.20;99.90
13585;DHT22;6863;48.402;9.994;2022-08-21T01:21:43;14.10;99.90
13585;DHT22;6863;48.402;9.994;2022-08-21T01:24:10;14.00;99.90
13585;DHT22;6863;48.402;9.994;2022-08-21T01:26:36;13.90;99.90
13585;DHT22;6863;48.402;9.994;2022-08-21T01:29:13;13.80;99.90
13585;DHT22;6863;48.402;9.994;2022-08-21T01:31:41;13.90;99.90
13585;DHT22;6863;48.402;9.994;2022-08-21T01:34:08;14.00;99.90
13585;DHT22;6863;48.402;9.994;2022-08-21T01:36:34;14.00;99.90
13585;DHT22;6863;48.402;9.994;2022-08-21T01:39:00;14.00;99.90
13585;DHT22;6863;48.402;9.994;2022-08-21T01:41:25;13.90;99.90
13585;DHT22;6863;48.402;9.994;2022-08-21T01:43:51;13.80;99.90
13585;DHT22;6863;48.402;9.994;2022-08-21T01:46:18;13.80;99.90
13585;DHT22;6863;48.402;9.994;2022-08-21T01:48:44;13.70;99.90
13585;DHT22;6863;48.402;9.994;2022-08-21T01:51:10;13.80;99.90
13585;DHT22;6863;48.402;9.994;2022-08-21T01:53:36;13.90;99.90
13585;DHT22;6863;48.402;9.994;2022-08-21T01:56:04;13.80;99.90
13585;DHT22;6863;48.402;9.994;2022-08-21T01:58:30;13.80;99.90
13585;DHT22;6863;48.402;9.994;2022-08-21T02:00:56;13.70;99.90
13585;DHT22;6863;48.402;9.994;2022-08-21T02:03:22;13.70;99.90
13585;DHT22;6863;48.402;9.994;2022-08-21T02:05:47;13.70;99.90
13585;DHT22;6863;48.402;9.994;2022-08-21T02:08:13;13.70;99.90
13585;DHT22;6863;48.402;9.994;2022-08-21T02:10:38;13.70;99.90
13585;DHT22;6863;48.402;9.994;2022-08-21T02:13:04;13.70;99.90
13585;DHT22;6863;48.402;9.994;2022-08-21T02:15:30;13.70;99.90
13585;DHT22;6863;48.402;9.994;2022-08-21T02:17:58;13.60;99.90
13585;DHT22;6863;48.402;9.994;2022-08-21T02:20:42;13.50;99.90
13585;DHT22;6863;48.402;9.994;2022-08-21T02:23:09;13.40;99.90
13585;DHT22;6863;48.402;9.994;2022-08-21T02:25:36;13.30;99.90
13585;DHT22;6863;48.402;9.994;2022-08-21T02:28:05;13.30;99.90
13585;DHT22;6863;48.402;9.994;2022-08-21T02:30:35;13.30;99.90
13585;DHT22;6863;48.402;9.994;2022-08-21T02:33:04;13.40;99.90
13585;DHT22;6863;48.402;9.994;2022-08-21T02:35:29;13.30;99.90
13585;DHT22;6863;48.402;9.994;2022-08-21T02:38:04;13.30;99.90
13585;DHT22;6863;48.402;9.994;2022-08-21T02:40:34;13.40;99.90
13585;DHT22;6863;48.402;9.994;2022-08-21T02:43:01;13.40;99.90
13585;DHT22;6863;48.402;9.994;2022-08-21T02:45:28;13.40;99.90
13585;DHT22;6863;48.402;9.994;2022-08-21T02:47:57;13.40;99.90
13585;DHT22;6863;48.402;9.994;2022-08-21T02:50:30;13.30;99.90
13585;DHT22;6863;48.402;9.994;2022-08-21T02:52:56;13.20;99.90
13585;DHT22;6863;48.402;9.994;2022-08-21T02:55:24;13.10;99.90
13585;DHT22;6863;48.402;9.994;2022-08-21T02:57:55;12.90;99.90
13585;DHT22;6863;48.402;9.994;2022-08-21T03:00:22;12.80;99.90
13585;DHT22;6863;48.402;9.994;2022-08-21T03:02:49;12.70;99.90
13585;DHT22;6863;48.402;9.994;2022-08-21T03:05:16;12.70;99.90
13585;DHT22;6863;48.402;9.994;2022-08-21T03:07:46;12.70;99.90
13585;DHT22;6863;48.402;9.994;2022-08-21T03:10:13;12.70;99.90
13585;DHT22;6863;48.402;9.994;2022-08-21T03:12:40;12.70;99.90
13585;DHT22;6863;48.402;9.994;2022-08-21T03:15:10;12.50;99.90
13585;DHT22;6863;48.402;9.994;2022-08-21T03:17:37;12.50;99.90
13585;DHT22;6863;48.402;9.994;2022-08-21T03:20:05;12.40;99.90
13585;DHT22;6863;48.402;9.994;2022-08-21T03:22:31;12.40;99.90
13585;DHT22;6863;48.402;9.994;2022-08-21T03:24:57;12.30;99.90
13585;DHT22;6863;48.402;9.994;2022-08-21T03:27:24;12.30;99.90
13585;DHT22;6863;48.402;9.994;2022-08-21T03:29:50;12.40;99.90
13585;DHT22;6863;48.402;9.994;2022-08-21T03:32:15;12.40;99.90
13585;DHT22;6863;48.402;9.994;2022-08-21T03:34:41;12.40;99.90
13585;DHT22;6863;48.402;9.994;2022-08-21T03:37:07;12.40;99.90
13585;DHT22;6863;48.402;9.994;2022-08-21T03:39:34;12.40;99.90
13585;DHT22;6863;48.402;9.994;2022-08-21T03:41:59;12.40;99.90
13585;DHT22;6863;48.402;9.994;2022-08-21T03:44:26;12.50;99.90
13585;DHT22;6863;48.402;9.994;2022-08-21T03:46:54;12.60;99.90
13585;DHT22;6863;48.402;9.994;2022-08-21T03:49:20;12.80;99.90
13585;DHT22;6863;48.402;9.994;2022-08-21T03:51:46;12.80;99.90
13585;DHT22;6863;48.402;9.994;2022-08-21T03:54:11;12.80;99.90
13585;DHT22;6863;48.402;9.994;2022-08-21T03:56:37;12.90;99.90
13585;DHT22;6863;48.402;9.994;2022-08-21T03:59:04;12.90;99.90
13585;DHT22;6863;48.402;9.994;2022-08-21T04:01:31;12.90;99.90
13585;DHT22;6863;48.402;9.994;2022-08-21T04:03:56;12.90;99.90
13585;DHT22;6863;48.402;9.994;2022-08-21T04:06:22;12.90;99.90
13585;DHT22;6863;48.402;9.994;2022-08-21T04:08:47;12.90;99.90
13585;DHT22;6863;48.402;9.994;2022-08-21T04:11:13;12.90;99.90
13585;DHT22;6863;48.402;9.994;2022-08-21T04:13:40;12.80;99.90
13585;DHT22;6863;48.402;9.994;2022-08-21T04:16:06;12.80;99.90
13585;DHT22;6863;48.402;9.994;2022-08-21T04:18:32;12.80;99.90
13585;DHT22;6863;48.402;9.994;2022-08-21T04:20:58;12.80;99.90
13585;DHT22;6863;48.402;9.994;2022-08-21T04:23:25;12.70;99.90
13585;DHT22;6863;48.402;9.994;2022-08-21T04:25:53;12.70;99.90
13585;DHT22;6863;48.402;9.994;2022-08-21T04:28:19;12.70;99.90
13585;DHT22;6863;48.402;9.994;2022-08-21T04:30:45;12.70;99.90
13585;DHT22;6863;48.402;9.994;2022-08-21T04:33:11;12.70;99.90
13585;DHT22;6863;48.402;9.994;2022-08-21T04:35:37;12.70;99.90
13585;DHT22;6863;48.402;9.994;2022-08-21T04:38:02;12.60;99.90
13585;DHT22;6863;48.402;9.994;2022-08-21T04:40:29;12.60;99.90
13585;DHT22;6863;48.402;9.994;2022-08-21T04:42:57;12.50;99.90
13585;DHT22;6863;48.402;9.994;2022-08-21T04:45:31;12.50;99.90
13585;DHT22;6863;48.402;9.994;2022-08-21T04:47:59;12.60;99.90
13585;DHT22;6863;48.402;9.994;2022-08-21T04:53:00;12.60;99.90
13585;DHT22;6863;48.402;9.994;2022-08-21T04:55:26;12.60;99.90
13585;DHT22;6863;48.402;9.994;2022-08-21T04:57:54;12.60;99.90
13585;DHT22;6863;48.402;9.994;2022-08-21T05:00:21;12.50;99.90
13585;DHT22;6863;48.402;9.994;2022-08-21T05:02:48;12.50;99.90
13585;DHT22;6863;48.402;9.994;2022-08-21T05:05:14;12.40;99.90
13585;DHT22;6863;48.402;9.994;2022-08-21T05:07:41;12.40;99.90
13585;DHT22;6863;48.402;9.994;2022-08-21T05:10:08;12.40;99.90
13585;DHT22;6863;48.402;9.994;2022-08-21T05:12:34;12.40;99.90
13585;DHT22;6863;48.402;9.994;2022-08-21T05:15:01;12.40;99.90
13585;DHT22;6863;48.402;9.994;2022-08-21T05:17:26;12.40;99.90
13585;DHT22;6863;48.402;9.994;2022-08-21T05:19:52;12.40;99.90
13585;DHT22;6863;48.402;9.994;2022-08-21T05:22:21;12.40;99.90
13585;DHT22;6863;48.402;9.994;2022-08-21T05:24:47;12.40;99.90
13585;DHT22;6863;48.402;9.994;2022-08-21T05:27:13;12.50;99.90
13585;DHT22;6863;48.402;9.994;2022-08-21T05:29:38;12.50;99.90
13585;DHT22;6863;48.402;9.994;2022-08-21T05:32:11;12.60;99.90
13585;DHT22;6863;48.402;9.994;2022-08-21T05:34:37;12.70;99.90
13585;DHT22;6863;48.402;9.994;2022-08-21T05:37:03;12.70;99.90
13585;DHT22;6863;48.402;9.994;2022-08-21T05:39:29;12.80;99.90
13585;DHT22;6863;48.402;9.994;2022-08-21T05:41:55;12.90;99.90
13585;DHT22;6863;48.402;9.994;2022-08-21T05:44:21;12.90;99.90
13585;DHT22;6863;48.402;9.994;2022-08-21T05:46:46;13.00;99.90
13585;DHT22;6863;48.402;9.994;2022-08-21T05:49:12;13.00;99.90
13585;DHT22;6863;48.402;9.994;2022-08-21T05:51:40;13.10;99.90
13585;DHT22;6863;48.402;9.994;2022-08-21T05:54:06;13.20;99.90
13585;DHT22;6863;48.402;9.994;2022-08-21T05:56:32;13.30;99.90
13585;DHT22;6863;48.402;9.994;2022-08-21T05:58:58;13.40;99.90
13585;DHT22;6863;48.402;9.994;2022-08-21T06:01:26;13.40;99.90
13585;DHT22;6863;48.402;9.994;2022-08-21T06:03:53;13.60;99.90
13585;DHT22;6863;48.402;9.994;2022-08-21T06:06:18;13.80;99.90
13585;DHT22;6863;48.402;9.994;2022-08-21T06:08:44;13.90;99.90
13585;DHT22;6863;48.402;9.994;2022-08-21T06:11:09;14.10;99.90
13585;DHT22;6863;48.402;9.994;2022-08-21T06:13:37;14.20;99.90
13585;DHT22;6863;48.402;9.994;2022-08-21T06:16:07;14.30;99.90
13585;DHT22;6863;48.402;9.994;2022-08-21T06:18:34;14.30;99.90
13585;DHT22;6863;48.402;9.994;2022-08-21T06:21:00;14.50;99.90
13585;DHT22;6863;48.402;9.994;2022-08-21T06:23:25;14.60;99.90
13585;DHT22;6863;48.402;9.994;2022-08-21T06:25:51;14.70;99.90
13585;DHT22;6863;48.402;9.994;2022-08-21T06:28:18;15.00;99.90
13585;DHT22;6863;48.402;9.994;2022-08-21T06:30:44;15.10;99.90
13585;DHT22;6863;48.402;9.994;2022-08-21T06:33:10;15.20;99.90
13585;DHT22;6863;48.402;9.994;2022-08-21T06:35:35;15.20;99.90
13585;DHT22;6863;48.402;9.994;2022-08-21T06:38:02;15.30;99.90
13585;DHT22;6863;48.402;9.994;2022-08-21T06:40:28;15.50;99.90
13585;DHT22;6863;48.402;9.994;2022-08-21T06:42:54;15.70;99.90
13585;DHT22;6863;48.402;9.994;2022-08-21T06:45:20;15.90;99.90
13585;DHT22;6863;48.402;9.994;2022-08-21T06:47:46;16.00;99.90
13585;DHT22;6863;48.402;9.994;2022-08-21T06:50:12;16.30;99.90
13585;DHT22;6863;48.402;9.994;2022-08-21T06:52:39;16.30;99.90
13585;DHT22;6863;48.402;9.994;2022-08-21T06:55:09;16.30;99.90
13585;DHT22;6863;48.402;9.994;2022-08-21T06:57:34;16.30;99.90
13585;DHT22;6863;48.402;9.994;2022-08-21T07:00:02;16.40;99.90
13585;DHT22;6863;48.402;9.994;2022-08-21T07:02:31;16.60;99.90
13585;DHT22;6863;48.402;9.994;2022-08-21T07:04:58;17.00;99.90
13585;DHT22;6863;48.402;9.994;2022-08-21T07:07:24;17.20;99.90
13585;DHT22;6863;48.402;9.994;2022-08-21T07:09:49;17.40;99.90
13585;DHT22;6863;48.402;9.994;2022-08-21T07:12:15;17.60;99.90
13585;DHT22;6863;48.402;9.994;2022-08-21T07:14:40;17.70;99.90
13585;DHT22;6863;48.402;9.994;2022-08-21T07:17:06;17.80;99.90
13585;DHT22;6863;48.402;9.994;2022-08-21T07:19:32;18.00;99.90
13585;DHT22;6863;48.402;9.994;2022-08-21T07:22:01;18.10;99.90
13585;DHT22;6863;48.402;9.994;2022-08-21T07:24:28;18.40;99.90
13585;DHT22;6863;48.402;9.994;2022-08-21T07:26:55;18.60;99.90
13585;DHT22;6863;48.402;9.994;2022-08-21T07:29:20;18.80;99.90
13585;DHT22;6863;48.402;9.994;2022-08-21T07:31:46;19.00;99.90
13585;DHT22;6863;48.402;9.994;2022-08-21T07:34:12;19.20;99.90
13585;DHT22;6863;48.402;9.994;2022-08-21T07:36:38;19.30;99.90
13585;DHT22;6863;48.402;9.994;2022-08-21T07:39:04;19.40;99.90
13585;DHT22;6863;48.402;9.994;2022-08-21T07:41:30;19.50;99.90
13585;DHT22;6863;48.402;9.994;2022-08-21T07:43:57;19.80;99.90
13585;DHT22;6863;48.402;9.994;2022-08-21T07:46:23;20.00;99.90
13585;DHT22;6863;48.402;9.994;2022-08-21T07:48:50;20.00;99.90
13585;DHT22;6863;48.402;9.994;2022-08-21T07:51:17;20.20;99.90
13585;DHT22;6863;48.402;9.994;2022-08-21T07:53:51;20.40;99.90
13585;DHT22;6863;48.402;9.994;2022-08-21T07:56:17;20.80;99.90
13585;DHT22;6863;48.402;9.994;2022-08-21T07:58:43;21.10;99.30
13585;DHT22;6863;48.402;9.994;2022-08-21T08:01:09;21.70;98.50
13585;DHT22;6863;48.402;9.994;2022-08-21T08:03:35;22.00;97.30
13585;DHT22;6863;48.402;9.994;2022-08-21T08:06:01;21.90;96.90
13585;DHT22;6863;48.402;9.994;2022-08-21T08:08:29;22.10;96.60
13585;DHT22;6863;48.402;9.994;2022-08-21T08:10:56;22.10;96.60
13585;DHT22;6863;48.402;9.994;2022-08-21T08:13:23;22.40;96.00
13585;DHT22;6863;48.402;9.994;2022-08-21T08:15:49;22.60;95.40
13585;DHT22;6863;48.402;9.994;2022-08-21T08:18:14;23.00;94.80
13585;DHT22;6863;48.402;9.994;2022-08-21T08:20:40;23.80;93.60
13585;DHT22;6863;48.402;9.994;2022-08-21T08:23:07;25.00;91.40
13585;DHT22;6863;48.402;9.994;2022-08-21T08:25:34;24.50;91.50
13585;DHT22;6863;48.402;9.994;2022-08-21T08:28:00;24.90;91.40
13585;DHT22;6863;48.402;9.994;2022-08-21T08:30:26;25.40;89.90
13585;DHT22;6863;48.402;9.994;2022-08-21T08:32:51;26.20;85.90
13585;DHT22;6863;48.402;9.994;2022-08-21T08:35:17;26.50;82.70
13585;DHT22;6863;48.402;9.994;2022-08-21T08:37:43;26.70;81.80
13585;DHT22;6863;48.402;9.994;2022-08-21T08:40:37;27.00;79.90
13585;DHT22;6863;48.402;9.994;2022-08-21T08:43:03;27.00;78.90
13585;DHT22;6863;48.402;9.994;2022-08-21T08:45:32;27.50;78.00
13585;DHT22;6863;48.402;9.994;2022-08-21T08:48:03;28.50;73.30
13585;DHT22;6863;48.402;9.994;2022-08-21T08:50:41;28.90;71.90
13585;DHT22;6863;48.402;9.994;2022-08-21T08:53:23;29.40;69.60
13585;DHT22;6863;48.402;9.994;2022-08-21T08:55:52;30.50;63.60
13585;DHT22;6863;48.402;9.994;2022-08-21T08:58:27;30.70;61.00
13585;DHT22;6863;48.402;9.994;2022-08-21T09:00:56;31.80;55.40
13585;DHT22;6863;48.402;9.994;2022-08-21T09:03:24;32.80;52.40
13585;DHT22;6863;48.402;9.994;2022-08-21T09:06:02;33.30;50.80
13585;DHT22;6863;48.402;9.994;2022-08-21T09:09:00;34.20;47.80
13585;DHT22;6863;48.402;9.994;2022-08-21T09:11:35;34.00;47.30
13585;DHT22;6863;48.402;9.994;2022-08-21T09:14:14;34.80;43.80
13585;DHT22;6863;48.402;9.994;2022-08-21T09:19:56;35.80;40.50
13585;DHT22;6863;48.402;9.994;2022-08-21T09:25:33;36.90;34.10
13585;DHT22;6863;48.402;9.994;2022-08-21T09:27:59;37.70;33.80
13585;DHT22;6863;48.402;9.994;2022-08-21T09:30:31;38.70;30.50
13585;DHT22;6863;48.402;9.994;2022-08-21T09:32:57;38.50;30.20
13585;DHT22;6863;48.402;9.994;2022-08-21T09:35:24;38.30;30.50
13585;DHT22;6863;48.402;9.994;2022-08-21T09:40:41;39.00;28.40
13585;DHT22;6863;48.402;9.994;2022-08-21T09:45:41;39.60;27.50
13585;DHT22;6863;48.402;9.994;2022-08-21T09:48:24;39.30;29.30
13585;DHT22;6863;48.402;9.994;2022-08-21T09:50:52;41.00;26.50
13585;DHT22;6863;48.402;9.994;2022-08-21T09:53:26;42.30;25.30
13585;DHT22;6863;48.402;9.994;2022-08-21T09:56:18;41.20;25.80
13585;DHT22;6863;48.402;9.994;2022-08-21T09:59:16;38.80;27.20
13585;DHT22;6863;48.402;9.994;2022-08-21T10:01:45;38.40;28.20
13585;DHT22;6863;48.402;9.994;2022-08-21T10:04:12;39.70;27.50
13585;DHT22;6863;48.402;9.994;2022-08-21T10:06:38;41.10;26.10
13585;DHT22;6863;48.402;9.994;2022-08-21T10:09:13;43.20;24.90
13585;DHT22;6863;48.402;9.994;2022-08-21T10:11:40;43.10;23.70
13585;DHT22;6863;48.402;9.994;2022-08-21T10:17:47;39.60;26.60
13585;DHT22;6863;48.402;9.994;2022-08-21T10:20:25;41.20;25.00
13585;DHT22;6863;48.402;9.994;2022-08-21T10:25:32;42.40;23.70
13585;DHT22;6863;48.402;9.994;2022-08-21T10:36:47;46.00;21.50
13585;DHT22;6863;48.402;9.994;2022-08-21T10:44:57;47.70;20.90
13585;DHT22;6863;48.402;9.994;2022-08-21T10:47:27;47.90;20.50
13585;DHT22;6863;48.402;9.994;2022-08-21T10:57:54;48.30;19.30
13585;DHT22;6863;48.402;9.994;2022-08-21T11:00:24;48.00;19.60
13585;DHT22;6863;48.402;9.994;2022-08-21T11:05:43;45.50;20.60
13585;DHT22;6863;48.402;9.994;2022-08-21T11:08:35;44.60;21.10
13585;DHT22;6863;48.402;9.994;2022-08-21T11:11:12;43.60;22.10
13585;DHT22;6863;48.402;9.994;2022-08-21T11:13:54;42.80;22.80
13585;DHT22;6863;48.402;9.994;2022-08-21T11:18:55;45.90;21.00
13585;DHT22;6863;48.402;9.994;2022-08-21T11:21:54;46.10;20.70
13585;DHT22;6863;48.402;9.994;2022-08-21T11:27:14;46.50;20.60
13585;DHT22;6863;48.402;9.994;2022-08-21T11:29:46;47.90;19.50
13585;DHT22;6863;48.402;9.994;2022-08-21T11:38:28;48.10;19.50
13585;DHT22;6863;48.402;9.994;2022-08-21T11:41:22;48.50;19.30
13585;DHT22;6863;48.402;9.994;2022-08-21T11:46:50;46.50;19.90
13585;DHT22;6863;48.402;9.994;2022-08-21T11:49:39;45.60;20.30
13585;DHT22;6863;48.402;9.994;2022-08-21T11:57:31;46.90;20.10
13585;DHT22;6863;48.402;9.994;2022-08-21T12:00:16;46.40;20.30
13585;DHT22;6863;48.402;9.994;2022-08-21T12:02:57;45.60;20.20
13585;DHT22;6863;48.402;9.994;2022-08-21T12:08:01;44.40;21.40
13585;DHT22;6863;48.402;9.994;2022-08-21T12:10:34;46.40;20.70
13585;DHT22;6863;48.402;9.994;2022-08-21T12:13:28;46.50;19.90
13585;DHT22;6863;48.402;9.994;2022-08-21T12:16:09;43.70;20.90
13585;DHT22;6863;48.402;9.994;2022-08-21T12:18:35;44.00;21.10
13585;DHT22;6863;48.402;9.994;2022-08-21T12:21:24;45.40;20.50
13585;DHT22;6863;48.402;9.994;2022-08-21T12:24:16;44.70;21.60
13585;DHT22;6863;48.402;9.994;2022-08-21T12:26:55;45.80;20.90
13585;DHT22;6863;48.402;9.994;2022-08-21T12:29:29;47.10;20.30
13585;DHT22;6863;48.402;9.994;2022-08-21T12:37:27;47.00;20.30
13585;DHT22;6863;48.402;9.994;2022-08-21T12:39:58;47.40;19.80
13585;DHT22;6863;48.402;9.994;2022-08-21T12:42:53;43.90;21.30
13585;DHT22;6863;48.402;9.994;2022-08-21T12:45:36;41.00;23.60
13585;DHT22;6863;48.402;9.994;2022-08-21T12:48:12;38.60;25.60
13585;DHT22;6863;48.402;9.994;2022-08-21T12:50:49;38.10;27.10
13585;DHT22;6863;48.402;9.994;2022-08-21T12:53:29;39.40;26.70
13585;DHT22;6863;48.402;9.994;2022-08-21T12:55:56;42.00;24.10
13585;DHT22;6863;48.402;9.994;2022-08-21T12:58:31;43.60;23.10
13585;DHT22;6863;48.402;9.994;2022-08-21T13:01:06;43.80;22.90
13585;DHT22;6863;48.402;9.994;2022-08-21T13:03:35;45.20;22.20
13585;DHT22;6863;48.402;9.994;2022-08-21T13:06:04;46.50;21.60
13585;DHT22;6863;48.402;9.994;2022-08-21T13:08:30;47.60;21.00
13585;DHT22;6863;48.402;9.994;2022-08-21T13:11:02;47.40;20.70
13585;DHT22;6863;48.402;9.994;2022-08-21T13:13:29;45.40;21.60
13585;DHT22;6863;48.402;9.994;2022-08-21T13:16:03;43.00;23.80
13585;DHT22;6863;48.402;9.994;2022-08-21T13:18:33;41.10;24.80
13585;DHT22;6863;48.402;9.994;2022-08-21T13:21:12;39.10;26.20
13585;DHT22;6863;48.402;9.994;2022-08-21T13:23:39;37.90;27.40
13585;DHT22;6863;48.402;9.994;2022-08-21T13:26:16;37.00;28.00
13585;DHT22;6863;48.402;9.994;2022-08-21T13:28:42;35.90;29.00
13585;DHT22;6863;48.402;9.994;2022-08-21T13:31:09;35.10;29.60
13585;DHT22;6863;48.402;9.994;2022-08-21T13:33:37;34.60;29.80
13585;DHT22;6863;48.402;9.994;2022-08-21T13:36:09;34.20;30.60
13585;DHT22;6863;48.402;9.994;2022-08-21T13:38:36;33.50;31.10
13585;DHT22;6863;48.402;9.994;2022-08-21T13:41:29;33.00;32.00
13585;DHT22;6863;48.402;9.994;2022-08-21T13:44:02;32.40;33.10
13585;DHT22;6863;48.402;9.994;2022-08-21T13:46:32;32.20;33.30
13585;DHT22;6863;48.402;9.994;2022-08-21T13:49:00;32.20;34.70
13585;DHT22;6863;48.402;9.994;2022-08-21T13:51:29;34.50;31.50
13585;DHT22;6863;48.402;9.994;2022-08-21T13:53:55;37.20;28.50
13585;DHT22;6863;48.402;9.994;2022-08-21T13:56:33;39.30;26.40
13585;DHT22;6863;48.402;9.994;2022-08-21T13:59:06;40.80;24.80
13585;DHT22;6863;48.402;9.994;2022-08-21T14:01:35;41.40;24.40
13585;DHT22;6863;48.402;9.994;2022-08-21T14:04:21;42.30;23.60
13585;DHT22;6863;48.402;9.994;2022-08-21T14:06:47;43.10;22.60
13585;DHT22;6863;48.402;9.994;2022-08-21T14:11:54;43.40;22.00
13585;DHT22;6863;48.402;9.994;2022-08-21T14:14:26;42.30;22.90
13585;DHT22;6863;48.402;9.994;2022-08-21T14:16:59;43.10;22.20
13585;DHT22;6863;48.402;9.994;2022-08-21T14:19:38;42.90;22.00
13585;DHT22;6863;48.402;9.994;2022-08-21T14:24:48;44.00;21.40
13585;DHT22;6863;48.402;9.994;2022-08-21T14:27:17;44.20;21.10
13585;DHT22;6863;48.402;9.994;2022-08-21T14:29:43;43.60;21.80
13585;DHT22;6863;48.402;9.994;2022-08-21T14:32:13;43.10;22.00
13585;DHT22;6863;48.402;9.994;2022-08-21T14:34:39;42.90;22.60
13585;DHT22;6863;48.402;9.994;2022-08-21T14:37:05;42.80;22.70
13585;DHT22;6863;48.402;9.994;2022-08-21T14:39:31;42.70;22.60
13585;DHT22;6863;48.402;9.994;2022-08-21T14:41:57;42.70;22.50
13585;DHT22;6863;48.402;9.994;2022-08-21T14:44:23;42.70;23.20
13585;DHT22;6863;48.402;9.994;2022-08-21T14:46:48;42.30;23.80
13585;DHT22;6863;48.402;9.994;2022-08-21T14:49:15;43.00;22.60
13585;DHT22;6863;48.402;9.994;2022-08-21T14:51:41;43.00;22.50
13585;DHT22;6863;48.402;9.994;2022-08-21T14:54:06;43.40;22.20
13585;DHT22;6863;48.402;9.994;2022-08-21T14:56:34;43.20;22.30
13585;DHT22;6863;48.402;9.994;2022-08-21T14:59:06;42.50;23.00
13585;DHT22;6863;48.402;9.994;2022-08-21T15:01:34;42.50;23.30
13585;DHT22;6863;48.402;9.994;2022-08-21T15:04:00;42.80;23.00
13585;DHT22;6863;48.402;9.994;2022-08-21T15:06:26;42.90;22.80
13585;DHT22;6863;48.402;9.994;2022-08-21T15:08:51;42.50;23.10
13585;DHT22;6863;48.402;9.994;2022-08-21T15:11:19;42.80;22.60
13585;DHT22;6863;48.402;9.994;2022-08-21T15:13:46;41.90;22.90
13585;DHT22;6863;48.402;9.994;2022-08-21T15:16:12;41.00;24.10
13585;DHT22;6863;48.402;9.994;2022-08-21T15:18:38;40.10;24.60
13585;DHT22;6863;48.402;9.994;2022-08-21T15:21:04;39.40;25.50
13585;DHT22;6863;48.402;9.994;2022-08-21T15:23:30;39.10;25.10
13585;DHT22;6863;48.402;9.994;2022-08-21T15:25:56;39.00;26.00
13585;DHT22;6863;48.402;9.994;2022-08-21T15:28:23;38.60;26.10
13585;DHT22;6863;48.402;9.994;2022-08-21T15:30:50;38.30;26.00
13585;DHT22;6863;48.402;9.994;2022-08-21T15:33:16;37.40;27.20
13585;DHT22;6863;48.402;9.994;2022-08-21T15:35:42;36.90;27.10
13585;DHT22;6863;48.402;9.994;2022-08-21T15:38:08;35.90;27.90
13585;DHT22;6863;48.402;9.994;2022-08-21T15:40:35;34.90;29.30
13585;DHT22;6863;48.402;9.994;2022-08-21T15:43:03;33.90;30.20
13585;DHT22;6863;48.402;9.994;2022-08-21T15:45:30;33.10;30.60
13585;DHT22;6863;48.402;9.994;2022-08-21T15:47:56;31.90;32.00
13585;DHT22;6863;48.402;9.994;2022-08-21T15:50:24;30.70;34.30
13585;DHT22;6863;48.402;9.994;2022-08-21T15:52:51;30.30;34.50
13585;DHT22;6863;48.402;9.994;2022-08-21T15:55:17;29.80;35.20
13585;DHT22;6863;48.402;9.994;2022-08-21T15:57:45;29.40;36.30
13585;DHT22;6863;48.402;9.994;2022-08-21T16:00:18;29.20;36.90
13585;DHT22;6863;48.402;9.994;2022-08-21T16:02:47;29.20;36.80
13585;DHT22;6863;48.402;9.994;2022-08-21T16:05:14;29.20;37.10
13585;DHT22;6863;48.402;9.994;2022-08-21T16:07:42;29.20;37.10
13585;DHT22;6863;48.402;9.994;2022-08-21T16:10:08;28.70;38.00
13585;DHT22;6863;48.402;9.994;2022-08-21T16:12:38;28.20;38.80
13585;DHT22;6863;48.402;9.994;2022-08-21T16:15:07;28.00;40.30
13585;DHT22;6863;48.402;9.994;2022-08-21T16:17:35;27.90;41.30
13585;DHT22;6863;48.402;9.994;2022-08-21T16:20:06;27.80;41.50
13585;DHT22;6863;48.402;9.994;2022-08-21T16:22:32;27.90;41.10
13585;DHT22;6863;48.402;9.994;2022-08-21T16:25:01;27.90;40.60
13585;DHT22;6863;48.402;9.994;2022-08-21T16:27:27;27.90;41.40
13585;DHT22;6863;48.402;9.994;2022-08-21T16:29:52;27.70;40.20
13585;DHT22;6863;48.402;9.994;2022-08-21T16:32:18;27.40;41.50
13585;DHT22;6863;48.402;9.994;2022-08-21T16:34:46;27.20;41.50
13585;DHT22;6863;48.402;9.994;2022-08-21T16:37:16;27.00;42.00
13585;DHT22;6863;48.402;9.994;2022-08-21T16:39:44;27.00;42.50
13585;DHT22;6863;48.402;9.994;2022-08-21T16:42:22;26.90;42.30
13585;DHT22;6863;48.402;9.994;2022-08-21T16:44:48;26.50;43.60
13585;DHT22;6863;48.402;9.994;2022-08-21T16:47:14;26.20;45.60
13585;DHT22;6863;48.402;9.994;2022-08-21T16:49:40;25.90;46.40
13585;DHT22;6863;48.402;9.994;2022-08-21T16:52:11;25.90;46.60
13585;DHT22;6863;48.402;9.994;2022-08-21T16:54:36;25.80;47.10
13585;DHT22;6863;48.402;9.994;2022-08-21T16:57:02;25.70;47.20
13585;DHT22;6863;48.402;9.994;2022-08-21T16:59:28;25.60;47.10
13585;DHT22;6863;48.402;9.994;2022-08-21T17:01:54;25.50;47.50
13585;DHT22;6863;48.402;9.994;2022-08-21T17:04:20;25.50;47.70
13585;DHT22;6863;48.402;9.994;2022-08-21T17:06:46;25.50;47.70
13585;DHT22;6863;48.402;9.994;2022-08-21T17:09:12;25.50;48.60
13585;DHT22;6863;48.402;9.994;2022-08-21T17:11:43;25.50;47.80
13585;DHT22;6863;48.402;9.994;2022-08-21T17:14:22;25.60;47.90